| time (UTC) | temp F | wind direction | speed knots | gust knots | rain 1hr in | rain 24hr in | rain mn in | humidity % | barometer mb |
| 20260507060553 | 50 | 159 | 0.0 | 0.0 | 0.01 | 0.33 | 0.33 | 99 | 1009.2 |
| 20260507060057 | 50 | 82 | 0.0 | 0.0 | 0.01 | 0.33 | 0.33 | 99 | 1009.2 |
| 20260507055549 | 49 | 82 | 0.0 | 0.0 | 0.01 | 0.33 | 0.33 | 99 | 1009.2 |
| 20260507055047 | 49 | 82 | 0.0 | 0.9 | 0.01 | 0.33 | 0.33 | 99 | 1009.0 |
| 20260507054546 | 49 | 82 | 0.0 | 1.7 | 0.01 | 0.33 | 0.33 | 99 | 1009.1 |
| 20260507054047 | 48 | 83 | 0.0 | 1.7 | 0.00 | 0.32 | 0.32 | 98 | 1009.0 |
| 20260507053545 | 48 | 42 | 0.0 | 0.0 | 0.00 | 0.32 | 0.32 | 99 | 1009.0 |
| 20260507053046 | 49 | 39 | 0.0 | 0.0 | 0.00 | 0.32 | 0.32 | 99 | 1009.0 |
| 20260507052546 | 48 | 39 | 0.0 | 0.0 | 0.00 | 0.32 | 0.32 | 99 | 1009.0 |
| 20260507052043 | 48 | 39 | 0.0 | 0.0 | 0.00 | 0.32 | 0.32 | 99 | 1008.9 |
| 20260507051543 | 48 | 39 | 0.0 | 0.0 | 0.00 | 0.32 | 0.32 | 99 | 1008.9 |
| 20260507051041 | 48 | 38 | 0.0 | 0.0 | 0.00 | 0.32 | 0.32 | 99 | 1008.8 |
| 20260507050539 | 48 | 38 | 0.0 | 0.0 | 0.00 | 0.32 | 0.32 | 99 | 1008.6 |
| 20260507050042 | 48 | 38 | 0.0 | 0.0 | 0.00 | 0.32 | 0.32 | 99 | 1008.7 |
| 20260507045540 | 48 | 38 | 0.0 | 0.0 | 0.01 | 0.32 | 0.32 | 99 | 1008.6 |
| 20260507045037 | 48 | 39 | 0.0 | 0.0 | 0.01 | 0.32 | 0.32 | 99 | 1008.6 |
| 20260507044537 | 48 | 39 | 0.0 | 0.0 | 0.01 | 0.32 | 0.32 | 99 | 1008.7 |
| 20260507044035 | 47 | 39 | 0.0 | 0.0 | 0.01 | 0.32 | 0.32 | 99 | 1008.7 |
| 20260507043533 | 47 | 39 | 0.0 | 0.0 | 0.02 | 0.32 | 0.32 | 99 | 1008.5 |
| 20260507043035 | 47 | 39 | 0.0 | 0.0 | 0.02 | 0.32 | 0.32 | 99 | 1008.5 |
| 20260507042531 | 47 | 39 | 0.0 | 0.0 | 0.03 | 0.32 | 0.32 | 99 | 1008.4 |
| 20260507042029 | 47 | 355 | 0.0 | 0.0 | 0.04 | 0.32 | 0.32 | 98 | 1008.4 |
| 20260507041529 | 47 | 355 | 0.0 | 1.7 | 0.06 | 0.32 | 0.32 | 98 | 1008.3 |
| 20260507041029 | 47 | 355 | 0.0 | 1.7 | 0.06 | 0.32 | 0.32 | 98 | 1008.4 |
| 20260507040529 | 47 | 339 | 0.0 | 0.9 | 0.06 | 0.32 | 0.32 | 98 | 1008.3 |
| 20260507040028 | 47 | 313 | 0.0 | 1.7 | 0.05 | 0.31 | 0.31 | 98 | 1008.3 |
| 20260507035528 | 47 | 313 | 0.0 | 1.7 | 0.05 | 0.31 | 0.31 | 98 | 1008.3 |
| 20260507035028 | 47 | 313 | 0.0 | 0.0 | 0.06 | 0.31 | 0.31 | 99 | 1008.2 |
| 20260507034534 | 47 | 313 | 0.0 | 1.7 | 0.06 | 0.31 | 0.31 | 98 | 1008.3 |
| 20260507034027 | 47 | 313 | 0.0 | 1.7 | 0.06 | 0.31 | 0.31 | 98 | 1008.3 |
| 20260507033527 | 47 | 313 | 0.0 | 0.9 | 0.05 | 0.31 | 0.31 | 98 | 1008.4 |
| 20260507033026 | 47 | 313 | 0.0 | 1.7 | 0.05 | 0.30 | 0.30 | 98 | 1008.2 |
| 20260507032525 | 47 | 313 | 0.0 | 1.7 | 0.04 | 0.28 | 0.28 | 98 | 1008.1 |
| 20260507032025 | 47 | 313 | 0.0 | 1.7 | 0.03 | 0.28 | 0.28 | 98 | 1008.0 |
| 20260507031524 | 47 | 313 | 0.0 | 1.7 | 0.03 | 0.27 | 0.27 | 98 | 1007.9 |
| 20260507031025 | 47 | 313 | 0.0 | 0.9 | 0.03 | 0.27 | 0.27 | 98 | 1008.0 |
| 20260507030526 | 47 | 313 | 0.0 | 2.6 | 0.04 | 0.27 | 0.27 | 98 | 1007.9 |
| 20260507030024 | 47 | 313 | 0.0 | 2.6 | 0.05 | 0.27 | 0.27 | 98 | 1007.9 |
| 20260507025523 | 47 | 310 | 0.0 | 1.7 | 0.05 | 0.26 | 0.26 | 98 | 1007.8 |
| 20260507025023 | 47 | 310 | 0.0 | 1.7 | 0.05 | 0.26 | 0.26 | 98 | 1007.8 |
| 20260507024523 | 47 | 309 | 0.0 | 1.7 | 0.05 | 0.26 | 0.26 | 98 | 1007.8 |
| 20260507024022 | 47 | 306 | 0.0 | 2.6 | 0.05 | 0.26 | 0.26 | 98 | 1007.7 |
| 20260507023522 | 47 | 304 | 0.9 | 2.6 | 0.05 | 0.26 | 0.26 | 98 | 1007.6 |
| 20260507023021 | 47 | 5 | 0.0 | 2.6 | 0.04 | 0.25 | 0.25 | 98 | 1007.5 |
| 20260507022520 | 47 | 43 | 0.9 | 2.6 | 0.04 | 0.25 | 0.25 | 98 | 1007.6 |
| 20260507022021 | 47 | 227 | 0.0 | 3.5 | 0.03 | 0.24 | 0.24 | 98 | 1007.6 |
| 20260507021518 | 48 | 44 | 0.9 | 3.5 | 0.02 | 0.24 | 0.24 | 98 | 1007.6 |
| 20260507021018 | 48 | 10 | 0.9 | 2.6 | 0.02 | 0.23 | 0.23 | 98 | 1007.7 |
| 20260507020518 | 48 | 80 | 0.9 | 1.7 | 0.02 | 0.23 | 0.23 | 98 | 1007.7 |
| 20260507020027 | 48 | 291 | 0.0 | 1.7 | 0.01 | 0.22 | 0.22 | 98 | 1007.9 |
| 20260507015516 | 48 | 291 | 0.0 | 3.5 | 0.00 | 0.21 | 0.21 | 98 | 1007.8 |
| 20260507015016 | 48 | 91 | 0.0 | 3.5 | 0.00 | 0.21 | 0.21 | 97 | 1007.6 |
| 20260507014515 | 48 | 72 | 0.9 | 3.5 | 0.00 | 0.21 | 0.21 | 97 | 1007.6 |
| 20260507014015 | 48 | 355 | 0.9 | 4.3 | 0.00 | 0.21 | 0.21 | 98 | 1007.6 |
| 20260507013513 | 48 | 345 | 1.7 | 8.7 | 0.00 | 0.21 | 0.21 | 97 | 1007.5 |
| 20260507013018 | 48 | 76 | 0.9 | 8.7 | 0.01 | 0.21 | 0.21 | 97 | 1007.5 |
| 20260507012511 | 49 | 272 | 0.9 | 6.1 | 0.02 | 0.21 | 0.21 | 97 | 1007.5 |
| 20260507012010 | 49 | 42 | 0.0 | 7.0 | 0.03 | 0.21 | 0.21 | 97 | 1007.5 |
| 20260507011512 | 49 | 82 | 0.9 | 6.1 | 0.04 | 0.21 | 0.21 | 97 | 1007.5 |
| 20260507011008 | 50 | 76 | 0.0 | 5.2 | 0.06 | 0.21 | 0.21 | 98 | 1007.5 |
| 20260507010507 | 50 | 64 | 1.7 | 5.2 | 0.06 | 0.21 | 0.21 | 98 | 1007.4 |
| 20260507010007 | 50 | 107 | 0.0 | 2.6 | 0.08 | 0.21 | 0.21 | 98 | 1007.3 |
| 20260507005506 | 51 | 267 | 0.0 | 0.0 | 0.09 | 0.22 | 0.21 | 98 | 1007.5 |
| 20260507005006 | 50 | 267 | 0.0 | 0.0 | 0.10 | 0.22 | 0.21 | 98 | 1007.4 |
| 20260507004506 | 51 | 267 | 0.0 | 0.0 | 0.11 | 0.22 | 0.21 | 98 | 1007.3 |
| 20260507004005 | 51 | 267 | 0.0 | 1.7 | 0.12 | 0.22 | 0.21 | 98 | 1007.2 |
| 20260507003508 | 51 | 267 | 0.0 | 1.7 | 0.13 | 0.22 | 0.21 | 98 | 1007.2 |
| 20260507003006 | 51 | 267 | 0.0 | 1.7 | 0.13 | 0.21 | 0.20 | 98 | 1007.2 |
| 20260507002504 | 51 | 266 | 0.0 | 1.7 | 0.13 | 0.20 | 0.19 | 98 | 1007.3 |
| 20260507002003 | 51 | 266 | 0.0 | 1.7 | 0.13 | 0.19 | 0.18 | 98 | 1007.2 |
| 20260507001512 | 51 | 263 | 0.0 | 0.0 | 0.12 | 0.17 | 0.17 | 98 | 1007.1 |
| 20260507001003 | 51 | 263 | 0.0 | 1.7 | 0.11 | 0.17 | 0.16 | 97 | 1007.1 |
| 20260507000504 | 51 | 261 | 0.0 | 1.7 | 0.11 | 0.16 | 0.15 | 98 | 1006.9 |
| 20260507000002 | 51 | 229 | 0.0 | 0.0 | 0.10 | 0.14 | 0.13 | 98 | 1007.1 |
| 20260506235501 | 51 | 229 | 0.0 | 0.0 | 0.09 | 0.18 | 0.12 | 98 | 1007.1 |
| 20260506235100 | 51 | 229 | 0.0 | 0.0 | 0.08 | 0.17 | 0.11 | 98 | 1007.3 |
| 20260506234603 | 51 | 229 | 0.0 | 3.5 | 0.08 | 0.17 | 0.10 | 98 | 1007.2 |
| 20260506234100 | 52 | 229 | 0.0 | 3.5 | 0.08 | 0.16 | 0.09 | 98 | 1007.3 |
| 20260506233602 | 52 | 248 | 0.0 | 2.6 | 0.06 | 0.14 | 0.08 | 97 | 1007.2 |
| 20260506233101 | 52 | 248 | 0.0 | 2.6 | 0.06 | 0.13 | 0.07 | 97 | 1007.1 |
| 20260506232557 | 52 | 247 | 0.9 | 2.6 | 0.05 | 0.12 | 0.06 | 97 | 1007.1 |
| 20260506232058 | 52 | 178 | 0.0 | 2.6 | 0.04 | 0.11 | 0.05 | 97 | 1007.1 |
| 20260506231606 | 52 | 71 | 0.0 | 1.7 | 0.05 | 0.11 | 0.05 | 97 | 1007.0 |
| 20260506231057 | 52 | 63 | 0.0 | 2.6 | 0.05 | 0.11 | 0.05 | 97 | 1006.9 |
| 20260506230557 | 52 | 63 | 0.9 | 2.6 | 0.04 | 0.10 | 0.04 | 97 | 1006.8 |
| 20260506230112 | 52 | 94 | 0.9 | 4.3 | 0.03 | 0.09 | 0.03 | 97 | 1006.8 |
| 20260506225557 | 52 | 44 | 0.9 | 5.2 | 0.03 | 0.25 | 0.03 | 97 | 1006.7 |
| 20260506225055 | 52 | 325 | 1.7 | 8.7 | 0.02 | 0.24 | 0.02 | 96 | 1006.7 |
| 20260506224556 | 52 | 100 | 2.6 | 8.7 | 0.02 | 0.24 | 0.02 | 96 | 1006.7 |
| 20260506224055 | 52 | 69 | 1.7 | 5.2 | 0.02 | 0.24 | 0.02 | 96 | 1006.7 |
| 20260506223558 | 52 | 38 | 0.9 | 7.0 | 0.02 | 0.24 | 0.02 | 96 | 1006.7 |
| 20260506223054 | 52 | 58 | 2.6 | 7.8 | 0.02 | 0.24 | 0.02 | 96 | 1006.7 |
| 20260506222552 | 52 | 91 | 1.7 | 7.8 | 0.01 | 0.23 | 0.01 | 96 | 1006.7 |
| 20260506222054 | 52 | 65 | 1.7 | 5.2 | 0.01 | 0.23 | 0.01 | 96 | 1006.8 |
| 20260506221605 | 52 | 94 | 0.9 | 5.2 | 0.00 | 0.22 | 0.00 | 96 | 1006.8 |
| 20260506221050 | 52 | 101 | 1.7 | 9.6 | 0.00 | 0.22 | 0.00 | 96 | 1006.7 |
| 20260506220549 | 52 | 95 | 2.6 | 7.8 | 0.00 | 0.22 | 0.00 | 96 | 1006.8 |
| 20260506220049 | 52 | 87 | 1.7 | 7.8 | 0.00 | 0.22 | 0.00 | 96 | 1006.8 |
| 20260506215548 | 52 | 81 | 1.7 | 7.0 | 0.00 | 0.27 | 0.22 | 96 | 1006.7 |
| 20260506215051 | 53 | 104 | 3.5 | 7.0 | 0.00 | 0.27 | 0.22 | 96 | 1006.7 |
| 20260506214553 | 53 | 88 | 0.9 | 5.2 | 0.00 | 0.27 | 0.22 | 96 | 1006.7 |
| 20260506214046 | 53 | 96 | 1.7 | 8.7 | 0.00 | 0.27 | 0.22 | 95 | 1006.7 |
| 20260506213547 | 53 | 67 | 2.6 | 7.8 | 0.00 | 0.27 | 0.22 | 95 | 1006.7 |
| 20260506213047 | 53 | 68 | 1.7 | 6.1 | 0.00 | 0.27 | 0.22 | 95 | 1006.6 |
| 20260506212546 | 53 | 155 | 1.7 | 6.1 | 0.00 | 0.27 | 0.22 | 95 | 1006.6 |
| 20260506212046 | 53 | 87 | 1.7 | 6.1 | 0.00 | 0.27 | 0.22 | 95 | 1006.5 |
| 20260506211546 | 53 | 53 | 1.7 | 5.2 | 0.00 | 0.27 | 0.22 | 95 | 1006.5 |
| 20260506211048 | 53 | 44 | 1.7 | 7.0 | 0.00 | 0.27 | 0.22 | 95 | 1006.4 |
| 20260506210547 | 53 | 96 | 1.7 | 7.0 | 0.00 | 0.27 | 0.22 | 95 | 1006.5 |
| 20260506210054 | 53 | 333 | 1.7 | 7.8 | 0.00 | 0.27 | 0.22 | 95 | 1006.4 |
| 20260506205551 | 53 | 69 | 1.7 | 7.8 | 0.00 | 0.27 | 0.22 | 95 | 1006.4 |
| 20260506205045 | 53 | 80 | 0.9 | 7.0 | 0.00 | 0.27 | 0.22 | 95 | 1006.5 |
| 20260506204547 | 53 | 91 | 1.7 | 9.6 | 0.00 | 0.27 | 0.22 | 95 | 1006.3 |
| 20260506204044 | 53 | 73 | 2.6 | 9.6 | 0.00 | 0.27 | 0.22 | 94 | 1006.3 |
| 20260506203544 | 54 | 70 | 2.6 | 7.0 | 0.00 | 0.27 | 0.22 | 94 | 1006.2 |
| 20260506203045 | 54 | 342 | 0.9 | 7.0 | 0.00 | 0.27 | 0.22 | 94 | 1006.3 |
| 20260506202544 | 54 | 178 | 1.7 | 7.0 | 0.00 | 0.27 | 0.22 | 94 | 1006.3 |
| 20260506202044 | 54 | 32 | 2.6 | 7.0 | 0.00 | 0.27 | 0.22 | 94 | 1006.2 |
| 20260506201544 | 54 | 305 | 1.7 | 7.0 | 0.00 | 0.27 | 0.22 | 93 | 1006.2 |
| 20260506201047 | 54 | 68 | 2.6 | 8.7 | 0.00 | 0.27 | 0.22 | 93 | 1006.2 |
| 20260506200552 | 54 | 82 | 1.7 | 8.7 | 0.00 | 0.27 | 0.22 | 93 | 1006.1 |
| 20260506200043 | 54 | 91 | 2.6 | 8.7 | 0.00 | 0.27 | 0.22 | 92 | 1006.1 |
| 20260506195543 | 55 | 99 | 0.9 | 6.1 | 0.00 | 0.27 | 0.22 | 92 | 1006.2 |
| 20260506195043 | 55 | 78 | 1.7 | 6.1 | 0.00 | 0.27 | 0.22 | 92 | 1006.1 |
| 20260506194544 | 55 | 41 | 2.6 | 8.7 | 0.00 | 0.27 | 0.22 | 91 | 1006.2 |
| 20260506194042 | 55 | 5 | 1.7 | 8.7 | 0.00 | 0.27 | 0.22 | 91 | 1006.2 |
| 20260506193543 | 55 | 69 | 2.6 | 8.7 | 0.00 | 0.27 | 0.22 | 90 | 1006.3 |
| 20260506193046 | 55 | 87 | 1.7 | 4.3 | 0.00 | 0.27 | 0.22 | 90 | 1006.2 |
| 20260506192542 | 56 | 42 | 1.7 | 8.7 | 0.00 | 0.27 | 0.22 | 90 | 1006.3 |
| 20260506192042 | 56 | 80 | 1.7 | 8.7 | 0.00 | 0.27 | 0.22 | 89 | 1006.2 |
| 20260506191542 | 56 | 67 | 1.7 | 5.2 | 0.00 | 0.27 | 0.22 | 89 | 1006.2 |
| 20260506191042 | 56 | 79 | 1.7 | 4.3 | 0.00 | 0.27 | 0.22 | 88 | 1006.1 |
| 20260506190541 | 56 | 61 | 1.7 | 9.6 | 0.00 | 0.27 | 0.22 | 88 | 1006.1 |
| 20260506190043 | 56 | 116 | 1.7 | 9.6 | 0.00 | 0.27 | 0.22 | 87 | 1006.1 |
| 20260506185542 | 56 | 98 | 1.7 | 4.3 | 0.00 | 0.27 | 0.22 | 87 | 1005.9 |
| 20260506185041 | 57 | 86 | 1.7 | 5.2 | 0.00 | 0.27 | 0.22 | 86 | 1005.9 |
| 20260506184546 | 57 | 74 | 1.7 | 5.2 | 0.00 | 0.27 | 0.22 | 86 | 1005.9 |
| 20260506184142 | 57 | 84 | 0.9 | 5.2 | 0.00 | 0.27 | 0.22 | 86 | 1005.6 |
| 20260506183545 | 57 | 63 | 1.7 | 6.1 | 0.00 | 0.27 | 0.22 | 86 | 1005.7 |
| 20260506183044 | 57 | 88 | 1.7 | 4.3 | 0.00 | 0.27 | 0.22 | 86 | 1005.6 |
| 20260506182541 | 57 | 63 | 0.9 | 5.2 | 0.00 | 0.27 | 0.22 | 86 | 1005.6 |
| 20260506182042 | 57 | 76 | 0.9 | 3.5 | 0.00 | 0.27 | 0.22 | 87 | 1005.7 |
| 20260506181545 | 57 | 78 | 1.7 | 4.3 | 0.00 | 0.27 | 0.22 | 87 | 1005.8 |
| 20260506181039 | 57 | 48 | 0.9 | 4.3 | 0.00 | 0.27 | 0.22 | 87 | 1005.7 |
| 20260506180543 | 57 | 62 | 1.7 | 3.5 | 0.00 | 0.27 | 0.22 | 87 | 1005.8 |
| 20260506180039 | 57 | 76 | 0.0 | 5.2 | 0.00 | 0.27 | 0.22 | 87 | 1005.8 |
| 20260506175539 | 57 | 77 | 0.0 | 5.2 | 0.00 | 0.27 | 0.22 | 87 | 1005.8 |
| 20260506175042 | 58 | 61 | 0.0 | 2.6 | 0.00 | 0.27 | 0.22 | 86 | 1005.6 |
| 20260506174539 | 58 | 59 | 0.0 | 2.6 | 0.00 | 0.27 | 0.22 | 85 | 1005.5 |
| 20260506174039 | 58 | 119 | 0.0 | 0.0 | 0.00 | 0.27 | 0.22 | 85 | 1005.7 |
| 20260506173539 | 58 | 121 | 0.0 | 0.0 | 0.00 | 0.27 | 0.22 | 84 | 1005.7 |
| 20260506173044 | 59 | 126 | 0.0 | 0.0 | 0.00 | 0.27 | 0.22 | 83 | 1005.5 |
| 20260506172538 | 59 | 126 | 0.0 | 0.0 | 0.00 | 0.27 | 0.22 | 82 | 1005.5 |
| 20260506172037 | 59 | 128 | 0.0 | 0.0 | 0.00 | 0.27 | 0.22 | 81 | 1005.5 |
| 20260506171538 | 60 | 128 | 0.0 | 0.0 | 0.00 | 0.27 | 0.22 | 80 | 1005.4 |
| 20260506171038 | 60 | 128 | 0.0 | 0.0 | 0.00 | 0.27 | 0.22 | 79 | 1005.4 |
| 20260506170538 | 61 | 132 | 0.0 | 0.0 | 0.00 | 0.27 | 0.22 | 78 | 1005.5 |
| 20260506170044 | 61 | 134 | 0.0 | 0.0 | 0.00 | 0.27 | 0.22 | 76 | 1005.4 |
| 20260506165537 | 61 | 142 | 0.0 | 0.0 | 0.00 | 0.27 | 0.22 | 77 | 1005.5 |
| 20260506165037 | 62 | 147 | 0.0 | 0.0 | 0.00 | 0.27 | 0.22 | 77 | 1005.6 |
| 20260506164551 | 62 | 148 | 0.0 | 0.0 | 0.00 | 0.27 | 0.22 | 74 | 1005.7 |
| 20260506164036 | 62 | 148 | 0.0 | 0.0 | 0.00 | 0.27 | 0.22 | 72 | 1005.6 |
| 20260506163537 | 63 | 148 | 0.0 | 0.0 | 0.00 | 0.27 | 0.22 | 72 | 1005.4 |
| 20260506163041 | 63 | 148 | 0.0 | 0.0 | 0.00 | 0.27 | 0.22 | 71 | 1005.6 |
| 20260506162539 | 64 | 162 | 0.0 | 4.3 | 0.00 | 0.27 | 0.22 | 73 | 1005.4 |
| 20260506162039 | 64 | 148 | 0.0 | 4.3 | 0.00 | 0.27 | 0.22 | 66 | 1005.4 |
| 20260506161536 | 63 | 148 | 0.9 | 4.3 | 0.00 | 0.27 | 0.22 | 65 | 1005.4 |
| 20260506161035 | 64 | 262 | 0.0 | 4.3 | 0.00 | 0.27 | 0.22 | 66 | 1005.5 |
| 20260506160535 | 63 | 294 | 0.0 | 4.3 | 0.00 | 0.27 | 0.22 | 67 | 1005.6 |
| 20260506160037 | 63 | 281 | 0.9 | 5.2 | 0.00 | 0.27 | 0.22 | 64 | 1005.8 |
| 20260506155535 | 63 | 261 | 0.9 | 5.2 | 0.00 | 0.27 | 0.22 | 64 | 1005.8 |
| 20260506155035 | 63 | 204 | 1.7 | 6.1 | 0.00 | 0.27 | 0.22 | 64 | 1005.7 |
| 20260506154536 | 64 | 205 | 0.0 | 3.5 | 0.00 | 0.27 | 0.22 | 68 | 1005.7 |
| 20260506154037 | 64 | 188 | 0.0 | 3.5 | 0.00 | 0.27 | 0.22 | 67 | 1005.7 |
| 20260506153537 | 64 | 182 | 1.7 | 7.0 | 0.00 | 0.27 | 0.22 | 64 | 1005.7 |
| 20260506153035 | 64 | 194 | 1.7 | 7.0 | 0.00 | 0.27 | 0.22 | 63 | 1005.8 |
| 20260506152534 | 64 | 177 | 1.7 | 7.0 | 0.00 | 0.27 | 0.22 | 63 | 1005.9 |
| 20260506152036 | 65 | 209 | 2.6 | 7.0 | 0.00 | 0.27 | 0.22 | 62 | 1005.8 |
| 20260506151537 | 66 | 142 | 2.6 | 7.0 | 0.00 | 0.27 | 0.22 | 60 | 1005.9 |
| 20260506151033 | 66 | 186 | 3.5 | 7.8 | 0.00 | 0.27 | 0.22 | 60 | 1005.9 |
| 20260506150533 | 66 | 183 | 2.6 | 7.8 | 0.00 | 0.27 | 0.22 | 61 | 1005.7 |
| 20260506150033 | 66 | 128 | 1.7 | 7.8 | 0.00 | 0.27 | 0.22 | 62 | 1005.7 |
| 20260506145533 | 66 | 140 | 2.6 | 7.8 | 0.00 | 0.27 | 0.22 | 62 | 1005.8 |
| 20260506145031 | 65 | 215 | 2.6 | 7.8 | 0.00 | 0.27 | 0.22 | 64 | 1005.8 |
| 20260506144532 | 65 | 184 | 4.3 | 7.8 | 0.00 | 0.27 | 0.22 | 62 | 1005.8 |
| 20260506144031 | 65 | 160 | 3.5 | 7.0 | 0.00 | 0.27 | 0.22 | 66 | 1005.9 |
| 20260506143531 | 64 | 190 | 0.9 | 6.1 | 0.00 | 0.27 | 0.22 | 67 | 1005.9 |
| 20260506143037 | 64 | 165 | 1.7 | 6.1 | 0.00 | 0.27 | 0.22 | 67 | 1006.0 |
| 20260506142630 | 64 | 165 | 2.6 | 6.1 | 0.00 | 0.27 | 0.22 | 67 | 1006.1 |
| 20260506142030 | 65 | 155 | 1.7 | 7.0 | 0.00 | 0.27 | 0.22 | 65 | 1006.0 |
| 20260506141540 | 65 | 210 | 1.7 | 8.7 | 0.00 | 0.27 | 0.22 | 69 | 1006.0 |
| 20260506141029 | 65 | 144 | 3.5 | 8.7 | 0.00 | 0.27 | 0.22 | 66 | 1006.0 |
| 20260506140532 | 65 | 192 | 2.6 | 7.8 | 0.00 | 0.27 | 0.22 | 66 | 1006.1 |
| 20260506140029 | 64 | 156 | 3.5 | 7.8 | 0.00 | 0.27 | 0.22 | 64 | 1006.1 |
| 20260506135528 | 65 | 227 | 1.7 | 6.1 | 0.00 | 0.27 | 0.22 | 71 | 1006.2 |
| 20260506135031 | 65 | 177 | 1.7 | 9.6 | 0.00 | 0.27 | 0.22 | 66 | 1006.1 |
| 20260506134528 | 65 | 145 | 3.5 | 9.6 | 0.00 | 0.27 | 0.22 | 64 | 1006.1 |
| 20260506134029 | 66 | 191 | 1.7 | 8.7 | 0.00 | 0.27 | 0.22 | 64 | 1006.2 |
| 20260506133527 | 66 | 248 | 3.5 | 8.7 | 0.00 | 0.27 | 0.22 | 65 | 1006.1 |
| 20260506133027 | 66 | 252 | 3.5 | 8.7 | 0.00 | 0.27 | 0.22 | 66 | 1006.3 |
| 20260506132530 | 65 | 164 | 2.6 | 7.8 | 0.00 | 0.27 | 0.22 | 67 | 1006.3 |
| 20260506132026 | 65 | 252 | 3.5 | 10.4 | 0.00 | 0.27 | 0.22 | 67 | 1006.3 |
| 20260506131526 | 65 | 279 | 5.2 | 11.3 | 0.00 | 0.27 | 0.22 | 65 | 1006.3 |
| 20260506131024 | 65 | 240 | 1.7 | 7.8 | 0.00 | 0.27 | 0.22 | 71 | 1006.3 |
| 20260506130528 | 65 | 292 | 3.5 | 7.8 | 0.00 | 0.27 | 0.22 | 68 | 1006.4 |
| 20260506130023 | 64 | 173 | 3.5 | 7.8 | 0.00 | 0.27 | 0.22 | 72 | 1006.4 |
| 20260506125523 | 64 | 151 | 2.6 | 7.8 | 0.00 | 0.27 | 0.22 | 69 | 1006.3 |
| 20260506125023 | 65 | 242 | 2.6 | 7.8 | 0.00 | 0.27 | 0.22 | 70 | 1006.4 |
| 20260506124522 | 65 | 175 | 2.6 | 7.8 | 0.00 | 0.27 | 0.22 | 71 | 1006.4 |
| 20260506124021 | 64 | 194 | 2.6 | 8.7 | 0.00 | 0.27 | 0.22 | 70 | 1006.4 |
| 20260506123521 | 64 | 219 | 2.6 | 8.7 | 0.00 | 0.27 | 0.22 | 73 | 1006.5 |
| 20260506123021 | 64 | 186 | 2.6 | 8.7 | 0.00 | 0.27 | 0.22 | 72 | 1006.4 |
| 20260506122520 | 64 | 178 | 3.5 | 6.1 | 0.00 | 0.27 | 0.22 | 70 | 1006.5 |
| 20260506122019 | 64 | 201 | 1.7 | 7.8 | 0.00 | 0.27 | 0.22 | 74 | 1006.6 |
| 20260506121519 | 63 | 178 | 4.3 | 8.7 | 0.00 | 0.27 | 0.22 | 72 | 1006.5 |
| 20260506121019 | 64 | 220 | 3.5 | 6.1 | 0.00 | 0.27 | 0.22 | 73 | 1006.5 |
| 20260506120519 | 63 | 203 | 2.6 | 7.8 | 0.00 | 0.27 | 0.22 | 73 | 1006.5 |
| 20260506120034 | 63 | 184 | 2.6 | 9.6 | 0.00 | 0.27 | 0.22 | 70 | 1006.5 |
| 20260506115521 | 63 | 267 | 2.6 | 9.6 | 0.00 | 0.27 | 0.22 | 73 | 1006.5 |
| 20260506115017 | 64 | 207 | 2.6 | 7.8 | 0.00 | 0.27 | 0.22 | 77 | 1006.5 |
| 20260506114519 | 63 | 213 | 2.6 | 7.0 | 0.00 | 0.27 | 0.22 | 74 | 1006.3 |
| 20260506114015 | 62 | 232 | 1.7 | 7.0 | 0.00 | 0.27 | 0.22 | 76 | 1006.4 |
| 20260506113514 | 62 | 196 | 2.6 | 9.6 | 0.00 | 0.27 | 0.22 | 74 | 1006.4 |
| 20260506113013 | 62 | 253 | 4.3 | 9.6 | 0.00 | 0.27 | 0.22 | 74 | 1006.3 |
| 20260506112512 | 62 | 185 | 3.5 | 10.4 | 0.00 | 0.27 | 0.22 | 73 | 1006.6 |
| 20260506112012 | 62 | 266 | 4.3 | 10.4 | 0.00 | 0.27 | 0.22 | 73 | 1006.3 |
| 20260506111510 | 62 | 184 | 3.5 | 7.0 | 0.00 | 0.27 | 0.22 | 75 | 1006.4 |
| 20260506111010 | 61 | 211 | 2.6 | 7.0 | 0.00 | 0.27 | 0.22 | 76 | 1006.3 |
| 20260506110610 | 61 | 249 | 2.6 | 7.0 | 0.00 | 0.27 | 0.22 | 77 | 1006.3 |
| 20260506110010 | 61 | 226 | 2.6 | 8.7 | 0.00 | 0.27 | 0.22 | 78 | 1006.5 |
| 20260506105509 | 60 | 239 | 4.3 | 10.4 | 0.00 | 0.27 | 0.22 | 78 | 1006.5 |
| 20260506105010 | 61 | 312 | 2.6 | 14.8 | 0.00 | 0.27 | 0.22 | 79 | 1006.4 |
| 20260506104513 | 61 | 255 | 1.7 | 12.2 | 0.00 | 0.27 | 0.22 | 78 | 1006.5 |
| 20260506104011 | 61 | 176 | 4.3 | 12.2 | 0.00 | 0.27 | 0.22 | 77 | 1006.4 |
| 20260506103506 | 61 | 182 | 0.9 | 6.1 | 0.00 | 0.27 | 0.22 | 82 | 1006.5 |
| 20260506103018 | 60 | 164 | 2.6 | 7.0 | 0.00 | 0.27 | 0.22 | 83 | 1006.4 |
| 20260506102507 | 60 | 207 | 2.6 | 6.1 | 0.00 | 0.27 | 0.22 | 82 | 1006.3 |
| 20260506102006 | 60 | 242 | 1.7 | 7.0 | 0.00 | 0.27 | 0.22 | 81 | 1006.3 |
| 20260506101505 | 60 | 210 | 2.6 | 7.0 | 0.00 | 0.27 | 0.22 | 81 | 1006.4 |
| 20260506101002 | 59 | 227 | 3.5 | 7.0 | 0.00 | 0.27 | 0.22 | 81 | 1006.4 |
| 20260506100502 | 59 | 155 | 2.6 | 7.8 | 0.00 | 0.27 | 0.22 | 83 | 1006.4 |
| 20260506100002 | 59 | 178 | 4.3 | 7.8 | 0.00 | 0.27 | 0.22 | 83 | 1006.3 |
| 20260506095601 | 59 | 181 | 3.5 | 9.6 | 0.00 | 0.27 | 0.22 | 85 | 1006.5 |
| 20260506095059 | 59 | 141 | 3.5 | 8.7 | 0.00 | 0.27 | 0.22 | 86 | 1006.4 |
| 20260506094603 | 58 | 247 | 1.7 | 6.1 | 0.00 | 0.27 | 0.22 | 90 | 1006.3 |
| 20260506094057 | 58 | 215 | 1.7 | 4.3 | 0.00 | 0.27 | 0.22 | 90 | 1006.4 |
| 20260506093555 | 57 | 192 | 2.6 | 5.2 | 0.00 | 0.27 | 0.22 | 90 | 1006.4 |
| 20260506093054 | 56 | 245 | 1.7 | 6.1 | 0.00 | 0.27 | 0.22 | 92 | 1006.5 |
| 20260506092553 | 56 | 193 | 0.9 | 6.1 | 0.00 | 0.27 | 0.22 | 91 | 1006.4 |
| 20260506092052 | 56 | 167 | 1.7 | 8.7 | 0.00 | 0.27 | 0.22 | 90 | 1006.3 |
| 20260506091552 | 56 | 254 | 2.6 | 8.7 | 0.00 | 0.27 | 0.22 | 91 | 1006.5 |
| 20260506091051 | 56 | 194 | 1.7 | 7.8 | 0.00 | 0.27 | 0.22 | 93 | 1006.4 |
| 20260506090549 | 55 | 268 | 2.6 | 7.8 | 0.00 | 0.27 | 0.22 | 93 | 1006.4 |
| 20260506090049 | 55 | 118 | 1.7 | 6.1 | 0.00 | 0.27 | 0.22 | 93 | 1006.3 |
| 20260506085548 | 55 | 221 | 0.9 | 5.2 | 0.00 | 0.27 | 0.22 | 93 | 1006.3 |
| 20260506085048 | 55 | 175 | 2.6 | 6.1 | 0.00 | 0.27 | 0.22 | 93 | 1006.5 |
| 20260506084615 | 54 | 211 | 1.7 | 7.0 | 0.00 | 0.27 | 0.22 | 93 | 1006.3 |
| 20260506084047 | 54 | 275 | 2.6 | 7.0 | 0.00 | 0.27 | 0.22 | 94 | 1006.3 |
| 20260506083545 | 54 | 193 | 3.5 | 7.0 | 0.00 | 0.27 | 0.22 | 94 | 1006.2 |
| 20260506083046 | 54 | 188 | 1.7 | 4.3 | 0.00 | 0.27 | 0.22 | 95 | 1006.2 |
| 20260506082544 | 54 | 193 | 0.0 | 5.2 | 0.00 | 0.27 | 0.22 | 96 | 1006.1 |
| 20260506082044 | 54 | 242 | 2.6 | 5.2 | 0.00 | 0.27 | 0.22 | 96 | 1006.0 |
| 20260506081552 | 54 | 176 | 0.9 | 6.1 | 0.00 | 0.27 | 0.22 | 96 | 1006.1 |
| 20260506081043 | 53 | 176 | 1.7 | 7.0 | 0.00 | 0.27 | 0.22 | 96 | 1006.1 |
| 20260506080543 | 53 | 117 | 2.6 | 7.0 | 0.00 | 0.27 | 0.22 | 96 | 1006.2 |
| 20260506073040 | 53 | 146 | 3.5 | 7.8 | 0.00 | 0.27 | 0.22 | 97 | 1006.0 |
| 20260506072539 | 53 | 183 | 2.6 | 7.8 | 0.00 | 0.27 | 0.22 | 97 | 1005.9 |
| 20260506072039 | 53 | 182 | 0.9 | 6.1 | 0.00 | 0.27 | 0.22 | 98 | 1005.9 |
| 20260506071539 | 53 | 266 | 2.6 | 6.1 | 0.00 | 0.27 | 0.22 | 98 | 1005.8 |
| 20260506071038 | 52 | 246 | 0.9 | 5.2 | 0.00 | 0.27 | 0.22 | 98 | 1005.9 |
| 20260506070538 | 52 | 207 | 1.7 | 4.3 | 0.00 | 0.27 | 0.22 | 99 | 1005.8 |
| 20260506062034 | 50 | 206 | 1.7 | 6.1 | 0.00 | 0.27 | 0.22 | 99 | 1006.0 |
| 20260506061534 | 50 | 196 | 0.9 | 4.3 | 0.00 | 0.27 | 0.22 | 99 | 1006.2 |
| 20260506061034 | 50 | 161 | 0.9 | 5.2 | 0.00 | 0.27 | 0.22 | 99 | 1006.1 |